Time;durP1;ratioP1;P1;durP2;ratioP2;P2;SDS_P1;SDS_P2;PMS_P1;PMS_P2;Temp;Humidity;BMP_temperature;BMP_pressure;BME280_temperature;BME280_humidity;BME280_pressure;Samples;Min_cycle;Max_cycle;Signal;HPM_P1;HPM_P2
2022/08/26 00:00:52;;;;;;;17.27;6.17;;;;;;;20.90;85.58;94522.13;5094651;28;21020;-75
2022/08/26 00:03:20;;;;;;;19.87;6.00;;;;;;;20.88;85.65;94516.19;5094531;28;20440;-75
2022/08/26 00:05:47;;;;;;;10.23;5.47;;;;;;;20.82;85.97;94517.00;5075576;28;20448;-75
2022/08/26 00:08:15;;;;;;;14.73;5.40;;;;;;;20.82;85.81;94518.84;5094644;28;20747;-75
2022/08/26 00:10:43;;;;;;;17.10;5.30;;;;;;;20.78;85.74;94513.06;5094762;28;20938;-75
2022/08/26 00:13:10;;;;;;;14.63;5.70;;;;;;;20.80;85.68;94511.03;5058741;28;20480;-75
2022/08/26 00:15:39;;;;;;;29.60;6.33;;;;;;;20.73;86.02;94518.19;5094407;28;20497;-75
2022/08/26 00:18:06;;;;;;;17.23;6.03;;;;;;;20.76;86.02;94512.44;5094406;28;20964;-75
2022/08/26 00:20:34;;;;;;;14.83;5.50;;;;;;;20.76;86.03;94511.63;5094715;28;20487;-75
2022/08/26 00:23:01;;;;;;;12.07;4.97;;;;;;;20.77;85.75;94514.09;5094764;28;20452;-75
2022/08/26 00:25:28;;;;;;;10.90;5.53;;;;;;;20.81;85.31;94515.34;5094435;28;20922;-76
2022/08/26 00:27:56;;;;;;;15.17;5.83;;;;;;;20.80;85.66;94516.34;5094316;28;20461;-75
2022/08/26 00:30:26;;;;;;;19.23;5.93;;;;;;;20.82;85.98;94508.19;5093635;28;20451;-75
2022/08/26 00:32:55;;;;;;;22.20;5.50;;;;;;;20.77;85.85;94502.59;5094356;28;20468;-75
2022/08/26 00:35:22;;;;;;;15.50;5.00;;;;;;;20.72;86.28;94516.56;5094233;28;20443;-75
2022/08/26 00:37:50;;;;;;;13.83;6.33;;;;;;;20.71;86.34;94501.56;5094281;28;20946;-75
2022/08/26 00:40:26;;;;;;;9.40;5.00;;;;;;;20.68;86.26;94509.97;5094216;28;21217;-75
2022/08/26 00:42:53;;;;;;;14.43;5.40;;;;;;;20.67;86.11;94506.50;5093963;28;20435;-75
2022/08/26 00:45:21;;;;;;;9.77;5.43;;;;;;;20.68;85.88;94510.81;5075072;28;20935;-75
2022/08/26 00:47:52;;;;;;;21.23;5.83;;;;;;;20.69;86.10;94501.78;5094223;28;20455;-75
2022/08/26 00:50:25;;;;;;;8.10;5.03;;;;;;;20.69;86.09;94495.63;5093970;28;20451;-75
2022/08/26 00:52:54;;;;;;;13.30;5.30;;;;;;;20.66;86.31;94496.03;5093941;28;20448;-75
2022/08/26 00:55:25;;;;;;;17.37;5.37;;;;;;;20.68;85.94;94509.97;5093832;28;20444;-75
2022/08/26 00:57:53;;;;;;;19.13;5.17;;;;;;;20.66;85.98;94496.03;5093614;28;20491;-74
2022/08/26 01:00:29;;;;;;;16.07;6.07;;;;;;;20.67;85.81;94498.50;5093665;28;20486;-75
2022/08/26 01:02:58;;;;;;;10.37;4.70;;;;;;;20.66;85.16;94494.19;5093846;28;20828;-75
2022/08/26 01:05:27;;;;;;;9.30;4.73;;;;;;;20.66;85.35;94504.03;5093603;28;20849;-75
2022/08/26 01:07:54;;;;;;;20.60;5.63;;;;;;;20.64;85.18;94503.41;5093603;28;20451;-75
2022/08/26 01:10:24;;;;;;;11.07;5.13;;;;;;;20.64;85.36;94503.41;5093608;28;20448;-75
2022/08/26 01:12:57;;;;;;;13.77;5.30;;;;;;;20.68;85.46;94502.81;5093554;28;20475;-75
2022/08/26 01:15:30;;;;;;;10.13;5.30;;;;;;;20.71;84.90;94493.56;5093459;28;20444;-75
2022/08/26 01:17:57;;;;;;;23.33;6.53;;;;;;;20.76;84.53;94499.13;5057648;28;20493;-75
2022/08/26 01:20:34;;;;;;;21.70;6.47;;;;;;;20.78;84.72;94496.25;5093215;28;20930;-76
2022/08/26 01:23:05;;;;;;;17.23;5.40;;;;;;;20.81;84.51;94495.84;5093515;28;20435;-75
2022/08/26 01:25:34;;;;;;;12.27;5.30;;;;;;;20.81;85.12;94487.84;5093065;28;20451;-75
2022/08/26 01:28:06;;;;;;;13.67;5.17;;;;;;;20.80;84.85;94496.88;5093471;28;20443;-76
2022/08/26 01:30:34;;;;;;;21.13;5.97;;;;;;;20.80;84.86;94500.34;5093239;28;20505;-76
2022/08/26 01:33:04;;;;;;;18.83;5.83;;;;;;;20.78;84.64;94494.41;5093370;28;20456;-75
2022/08/26 01:35:31;;;;;;;17.23;5.37;;;;;;;20.75;85.12;94494.81;5092909;28;20432;-76
2022/08/26 01:37:59;;;;;;;16.67;5.80;;;;;;;20.71;84.88;94499.72;5093251;28;20455;-75
2022/08/26 01:40:31;;;;;;;12.07;5.80;;;;;;;20.71;85.10;94497.06;5092707;28;20977;-75
2022/08/26 01:43:01;;;;;;;12.63;6.03;;;;;;;20.67;84.80;94503.81;5092167;28;20527;-75
2022/08/26 01:45:30;;;;;;;13.80;5.10;;;;;;;20.66;84.77;94494.19;5093036;28;20455;-76
2022/08/26 01:47:59;;;;;;;15.93;5.10;;;;;;;20.67;85.11;94495.00;5092667;28;20459;-75
2022/08/26 01:50:29;;;;;;;12.90;5.33;;;;;;;20.66;85.02;94504.84;5092917;28;20470;-76
2022/08/26 01:52:57;;;;;;;18.00;4.97;;;;;;;20.63;85.05;94491.91;5092601;28;20440;-75
2022/08/26 01:55:25;;;;;;;20.80;5.90;;;;;;;20.65;85.04;94513.06;5092753;28;20457;-75
2022/08/26 01:57:55;;;;;;;13.27;5.30;;;;;;;20.56;85.17;94490.28;5092713;28;20436;-75
2022/08/26 02:00:24;;;;;;;15.83;5.47;;;;;;;20.66;85.03;94509.34;5092492;28;20475;-75
2022/08/26 02:03:15;;;;;;;11.73;4.70;;;;;;;20.68;84.83;94502.81;5092257;28;20922;-75
2022/08/26 02:05:42;;;;;;;14.13;5.33;;;;;;;20.66;84.95;94501.38;5092521;28;20966;-75
2022/08/26 02:08:10;;;;;;;13.50;5.73;;;;;;;20.66;85.16;94512.03;5092410;28;20444;-75
2022/08/26 02:10:37;;;;;;;12.70;5.03;;;;;;;20.67;84.97;94503.81;5092725;28;20444;-75
2022/08/26 02:13:07;;;;;;;12.60;4.83;;;;;;;20.61;84.90;94498.47;5092315;28;20554;-76
2022/08/26 02:15:35;;;;;;;16.23;5.17;;;;;;;20.63;84.78;94502.59;5092551;28;20493;-75
2022/08/26 02:18:04;;;;;;;18.77;5.80;;;;;;;20.58;84.83;94497.03;5092682;28;20500;-75
2022/08/26 02:20:32;;;;;;;11.53;5.43;;;;;;;20.52;84.65;94500.50;5092470;28;20491;-75
2022/08/26 02:22:58;;;;;;;13.37;5.43;;;;;;;20.56;84.79;94500.94;5092256;28;20451;-75
2022/08/26 02:25:29;;;;;;;13.17;4.83;;;;;;;20.54;84.83;94497.66;5092153;28;20447;-75
2022/08/26 02:27:56;;;;;;;12.67;5.37;;;;;;;20.53;85.07;94501.31;5092192;28;20831;-75
2022/08/26 02:30:27;;;;;;;18.00;5.07;;;;;;;20.51;84.94;94496.19;5056905;28;20528;-75
2022/08/26 02:32:54;;;;;;;12.80;4.97;;;;;;;20.46;85.30;94501.28;5073356;28;20440;-75
2022/08/26 02:35:22;;;;;;;15.37;4.80;;;;;;;20.47;85.09;94494.13;5092068;28;20992;-75
2022/08/26 02:37:50;;;;;;;22.90;5.70;;;;;;;20.45;84.79;94498.81;5092474;28;20444;-75
2022/08/26 02:40:21;;;;;;;12.90;5.30;;;;;;;20.42;84.38;94495.53;5092023;28;20813;-75
2022/08/26 02:42:48;;;;;;;21.27;6.13;;;;;;;20.42;84.41;94495.53;5092387;28;20514;-75
2022/08/26 02:45:16;;;;;;;14.93;4.70;;;;;;;20.38;84.52;94499.59;5073214;28;20472;-75
2022/08/26 02:47:45;;;;;;;14.80;5.37;;;;;;;20.38;84.58;94502.28;5092252;28;20440;-75
2022/08/26 02:50:12;;;;;;;9.10;4.60;;;;;;;20.37;84.03;94503.28;5092028;28;20973;-75
2022/08/26 02:52:39;;;;;;;18.50;5.17;;;;;;;20.38;83.95;94504.94;5092626;28;20458;-75
2022/08/26 02:55:07;;;;;;;19.13;5.03;;;;;;;20.37;83.98;94497.13;5095776;28;20451;-75
2022/08/26 02:57:34;;;;;;;14.73;6.40;;;;;;;20.38;83.79;94504.94;5095929;28;20999;-75
2022/08/26 03:00:02;;;;;;;15.83;5.20;;;;;;;20.41;83.77;94501.91;5095932;28;20456;-74
2022/08/26 03:02:28;;;;;;;19.27;5.47;;;;;;;20.44;83.70;94498.00;5095647;28;20990;-75
2022/08/26 03:04:57;;;;;;;21.53;5.40;;;;;;;20.44;83.79;94498.00;5095868;28;20448;-75
2022/08/26 03:07:24;;;;;;;10.80;5.47;;;;;;;20.42;83.81;94497.38;5095837;28;20443;-75
2022/08/26 03:09:51;;;;;;;12.73;6.20;;;;;;;20.43;83.96;94507.03;5095743;28;20475;-75
2022/08/26 03:12:19;;;;;;;14.23;5.20;;;;;;;20.44;84.01;94502.53;5095552;28;20491;-75
2022/08/26 03:14:46;;;;;;;16.37;5.60;;;;;;;20.40;83.83;94505.59;5095770;28;20443;-76
2022/08/26 03:17:12;;;;;;;30.13;5.90;;;;;;;20.42;83.88;94508.06;5095865;28;20934;-75
2022/08/26 03:19:39;;;;;;;12.20;4.97;;;;;;;20.38;83.80;94509.44;5095503;28;20459;-75
2022/08/26 03:22:07;;;;;;;11.03;5.53;;;;;;;20.38;83.62;94514.78;5076511;28;20479;-75
2022/08/26 03:24:34;;;;;;;10.30;5.63;;;;;;;20.41;83.63;94511.75;5095801;28;20444;-75
2022/08/26 03:27:01;;;;;;;17.17;5.93;;;;;;;20.37;83.31;94505.13;5095860;28;20522;-75
2022/08/26 03:32:21;;;;;;;15.77;6.00;;;;;;;20.43;82.64;94501.69;5033386;28;20446;-75
2022/08/26 03:34:47;;;;;;;14.30;5.70;;;;;;;20.44;82.98;94510.50;5033408;28;20447;-75
2022/08/26 03:37:16;;;;;;;13.43;4.90;;;;;;;20.44;82.85;94502.53;5033221;28;20489;-75
2022/08/26 03:39:42;;;;;;;14.63;5.40;;;;;;;20.44;82.48;94505.19;5033199;28;20453;-75
2022/08/26 03:42:10;;;;;;;28.53;5.43;;;;;;;20.45;82.09;94509.50;5000145;28;20486;-76
2022/08/26 03:44:36;;;;;;;14.20;5.93;;;;;;;20.44;82.50;94507.84;5033199;28;20443;-75
2022/08/26 03:47:03;;;;;;;16.20;6.10;;;;;;;20.41;82.65;94495.75;5033214;28;20803;-75
2022/08/26 03:49:33;;;;;;;18.90;6.13;;;;;;;20.34;83.05;94503.69;5032925;28;20442;-75
2022/08/26 03:51:59;;;;;;;15.83;6.10;;;;;;;20.36;83.02;94500.81;5032870;28;20466;-75
2022/08/26 03:54:27;;;;;;;14.97;5.67;;;;;;;20.36;82.88;94506.97;5000134;28;20450;-75
2022/08/26 03:56:54;;;;;;;26.60;6.53;;;;;;;20.35;82.89;94504.50;5032841;28;20434;-75
2022/08/26 03:59:21;;;;;;;15.20;5.40;;;;;;;20.35;82.98;94500.00;5032960;28;20500;-75
2022/08/26 04:01:48;;;;;;;21.53;5.60;;;;;;;20.38;82.56;94506.78;5032647;28;20541;-75
2022/08/26 04:04:15;;;;;;;9.50;5.27;;;;;;;20.38;82.59;94504.13;5031809;28;20497;-74
2022/08/26 04:06:43;;;;;;;21.50;5.63;;;;;;;20.36;82.44;94504.31;5032742;28;20439;-75
2022/08/26 04:09:12;;;;;;;17.73;6.27;;;;;;;20.40;82.41;94504.75;5089586;28;20439;-76
2022/08/26 04:11:43;;;;;;;26.57;6.30;;;;;;;20.38;82.04;94496.13;5095380;28;20546;-77
2022/08/26 04:14:13;;;;;;;21.70;6.20;;;;;;;20.33;82.20;94490.56;5095373;28;20962;-77
2022/08/26 04:16:41;;;;;;;20.50;4.93;;;;;;;20.39;82.00;94495.09;5095178;28;20530;-76
2022/08/26 04:19:08;;;;;;;11.00;5.70;;;;;;;20.42;81.54;94492.88;5059279;28;20515;-77
2022/08/26 04:21:37;;;;;;;25.30;6.03;;;;;;;20.45;81.73;94497.00;5094878;28;20949;-77
2022/08/26 04:24:04;;;;;;;20.97;5.37;;;;;;;20.45;81.60;94504.97;5094790;28;20832;-77
2022/08/26 04:26:35;;;;;;;34.90;6.20;;;;;;;20.49;84.07;94497.41;5094872;28;20448;-77
2022/08/26 04:29:06;;;;;;;11.67;5.77;;;;;;;20.79;84.80;94495.22;5095035;28;20451;-79
2022/08/26 04:31:34;;;;;;;13.67;5.57;;;;;;;21.08;81.99;94488.69;5096844;28;20471;-78
2022/08/26 04:34:02;;;;;;;16.03;5.57;;;;;;;21.32;80.29;94496.13;5115109;28;20492;-78
2022/08/26 04:36:28;;;;;;;18.67;5.50;;;;;;;21.63;79.35;94498.97;5114954;28;20451;-78
2022/08/26 04:38:56;;;;;;;17.30;8.20;;;;;;;21.67;77.26;94499.38;5114756;28;20837;-77
2022/08/26 04:41:23;;;;;;;18.50;5.50;;;;;;;21.62;77.32;94508.03;5062702;28;20854;-76
2022/08/26 04:43:50;;;;;;;10.67;5.40;;;;;;;21.56;77.67;94506.19;5078962;28;20942;-76
2022/08/26 04:46:21;;;;;;;11.00;5.13;;;;;;;21.46;78.28;94508.47;5078747;28;20439;-76
2022/08/26 04:48:50;;;;;;;16.20;5.70;;;;;;;21.43;78.67;94514.22;5114697;28;20965;-76
2022/08/26 04:51:16;;;;;;;37.90;7.80;;;;;;;21.36;78.74;94508.03;5114459;28;20508;-76
2022/08/26 04:53:44;;;;;;;22.57;6.47;;;;;;;21.32;79.19;94512.16;5114938;28;20504;-76
2022/08/26 04:56:11;;;;;;;13.83;5.87;;;;;;;21.26;79.44;94500.44;5114452;28;20443;-76
2022/08/26 04:58:38;;;;;;;19.43;5.77;;;;;;;21.21;79.49;94502.06;5114756;28;20496;-76
2022/08/26 05:01:05;;;;;;;21.83;6.50;;;;;;;21.20;79.62;94503.09;5114320;28;20474;-76
2022/08/26 05:03:33;;;;;;;16.48;5.90;;;;;;;21.17;80.27;94501.66;5114179;28;20431;-76
2022/08/26 05:06:04;;;;;;;22.27;6.90;;;;;;;21.16;80.12;94507.19;5114181;28;20205;-75
2022/08/26 05:08:30;;;;;;;7.83;5.17;;;;;;;21.12;80.42;94519.31;5114535;28;20438;-78
2022/08/26 05:10:57;;;;;;;25.63;5.20;;;;;;;21.20;84.98;94513.75;5112076;28;20439;-78
2022/08/26 05:13:26;;;;;;;11.73;4.97;;;;;;;21.56;86.17;94511.53;5097419;28;20479;-77
2022/08/26 05:15:54;;;;;;;12.80;5.60;;;;;;;22.07;84.46;94508.19;5113874;27;20445;-77
2022/08/26 05:18:22;;;;;;;15.53;6.73;;;;;;;22.69;77.92;94514.72;5119828;27;20814;-77
2022/08/26 05:20:56;;;;;;;18.10;5.40;;;;;;;23.10;75.26;94519.66;5113997;28;20979;-78
2022/08/26 05:23:24;;;;;;;13.70;4.63;;;;;;;23.51;72.95;94525.56;5113826;28;20485;-78
2022/08/26 05:25:52;;;;;;;22.70;4.57;;;;;;;23.70;71.16;94521.91;5113974;28;20462;-78
2022/08/26 05:28:20;;;;;;;8.83;5.50;;;;;;;23.92;70.65;94531.19;5113548;28;20446;-77
2022/08/26 05:30:48;;;;;;;20.53;5.57;;;;;;;24.04;70.62;94534.78;5113574;28;20951;-77
2022/08/26 05:33:15;;;;;;;11.20;5.40;;;;;;;24.13;69.56;94537.16;5113873;28;20447;-77
2022/08/26 05:35:42;;;;;;;23.60;5.57;;;;;;;24.15;69.46;94535.91;5113903;28;20479;-77
2022/08/26 05:38:13;;;;;;;17.27;4.33;;;;;;;24.16;72.36;94529.50;5113751;28;20447;-77
2022/08/26 05:40:43;;;;;;;13.33;4.67;;;;;;;24.27;68.64;94539.47;5060433;28;20530;-77
2022/08/26 05:43:10;;;;;;;12.33;4.97;;;;;;;24.34;68.24;94544.81;5113248;28;20474;-77
2022/08/26 05:45:38;;;;;;;11.13;5.70;;;;;;;24.38;68.15;94546.00;5113269;28;20918;-76
2022/08/26 05:48:07;;;;;;;19.97;5.27;;;;;;;24.18;67.95;94545.38;5113749;28;20530;-77
2022/08/26 05:50:37;;;;;;;19.13;6.57;;;;;;;23.91;69.03;94542.94;5099228;28;20927;-76
2022/08/26 05:53:05;;;;;;;13.77;5.53;;;;;;;23.61;70.60;94531.25;5112777;28;20789;-75
2022/08/26 05:55:34;;;;;;;14.80;5.90;;;;;;;23.38;71.22;94542.53;5113793;28;20473;-75
2022/08/26 05:58:01;;;;;;;13.23;5.00;;;;;;;23.14;72.33;94522.75;5060928;28;20511;-75
2022/08/26 06:00:28;;;;;;;14.83;5.13;;;;;;;22.95;73.54;94534.38;5099759;28;20951;-75
2022/08/26 06:02:55;;;;;;;21.83;7.00;;;;;;;22.75;74.38;94531.78;5098055;28;20578;-74
2022/08/26 06:05:22;;;;;;;9.87;5.60;;;;;;;22.63;75.23;94533.50;5126312;27;20443;-74
2022/08/26 06:10:35;;;;;;;21.57;5.90;;;;;;;;;;5112983;28;20903;-75
2022/08/26 06:13:02;;;;;;;22.37;5.53;;;;;;;22.29;76.87;94527.47;5076719;28;20565;-74
2022/08/26 06:15:29;;;;;;;15.80;5.23;;;;;;;22.27;77.38;94534.06;5076727;28;20925;-75
2022/08/26 06:17:55;;;;;;;15.40;6.43;;;;;;;22.25;77.94;94536.91;5112711;28;20563;-75
2022/08/26 06:20:22;;;;;;;16.57;6.00;;;;;;;22.24;78.39;94544.09;5112721;28;20941;-76
2022/08/26 06:25:39;;;;;;;16.23;6.47;;;;;;;22.24;79.12;94543.28;5112566;28;20442;-75
2022/08/26 06:28:07;;;;;;;16.40;6.73;;;;;;;22.23;79.45;94546.97;5112397;28;20469;-75
2022/08/26 06:30:38;;;;;;;19.43;6.50;;;;;;;22.21;79.20;94547.19;5112649;28;20457;-74
2022/08/26 06:33:05;;;;;;;17.00;5.63;;;;;;;22.15;79.42;94540.03;5112556;28;20523;-74
2022/08/26 06:35:36;;;;;;;16.87;5.23;;;;;;;22.14;79.56;94551.75;5112559;28;20654;-75
2022/08/26 06:38:03;;;;;;;20.60;5.00;;;;;;;22.14;79.15;94548.25;5112373;28;20843;-74
2022/08/26 06:40:30;;;;;;;14.00;5.73;;;;;;;22.14;79.23;94554.41;5112545;28;20446;-75
2022/08/26 06:42:59;;;;;;;9.47;5.20;;;;;;;22.14;79.65;94548.25;5112437;28;20478;-74
2022/08/26 06:45:26;;;;;;;14.10;5.20;;;;;;;22.13;79.88;94551.97;5112714;28;20454;-75
2022/08/26 06:47:53;;;;;;;25.73;6.00;;;;;;;22.17;80.41;94551.31;5060435;28;20549;-75
2022/08/26 06:50:20;;;;;;;24.87;5.47;;;;;;;22.17;80.82;94562.00;5076403;28;20435;-75
2022/08/26 06:52:46;;;;;;;10.07;5.23;;;;;;;22.13;81.55;94557.31;5112297;28;20454;-75
2022/08/26 06:55:13;;;;;;;18.90;6.30;;;;;;;22.18;82.29;94555.63;5112502;28;20446;-75
2022/08/26 06:57:40;;;;;;;18.87;6.13;;;;;;;22.20;82.79;94552.75;5112604;28;20440;-75
2022/08/26 07:00:10;;;;;;;17.90;5.63;;;;;;;22.21;83.22;94560.56;5112697;28;20442;-75
2022/08/26 07:02:37;;;;;;;19.43;7.53;;;;;;;22.27;83.89;94550.09;5112183;28;20565;-74
2022/08/26 07:05:04;;;;;;;21.43;6.50;;;;;;;22.36;84.30;94554.16;5112527;28;20465;-75
2022/08/26 07:07:31;;;;;;;12.10;6.50;;;;;;;22.44;83.47;94554.75;5112409;28;20449;-75
2022/08/26 07:09:58;;;;;;;10.63;5.80;;;;;;;22.51;83.14;94550.19;5112579;28;20826;-74
2022/08/26 07:12:25;;;;;;;15.17;6.73;;;;;;;22.59;82.34;94551.81;5112360;28;21041;-75
2022/08/26 07:14:52;;;;;;;17.40;6.30;;;;;;;22.67;82.65;94554.25;5112293;28;20439;-74
2022/08/26 07:17:21;;;;;;;22.27;7.70;;;;;;;22.74;82.16;94552.34;5112412;28;20523;-75
2022/08/26 07:19:48;;;;;;;8.60;5.63;;;;;;;22.81;82.01;94555.03;5112390;28;20470;-75
2022/08/26 07:22:15;;;;;;;14.37;5.80;;;;;;;22.88;81.19;94568.41;5112032;28;20578;-75
2022/08/26 07:24:42;;;;;;;21.13;6.73;;;;;;;23.04;80.84;94554.50;5059460;28;20431;-76
2022/08/26 07:27:11;;;;;;;26.13;8.20;;;;;;;23.35;80.08;94559.84;5112664;28;20442;-75
2022/08/26 07:29:41;;;;;;;14.63;6.70;;;;;;;23.79;79.59;94561.63;5112046;28;20435;-74
2022/08/26 07:32:10;;;;;;;28.50;7.23;;;;;;;24.18;74.71;94566.81;5112263;28;20446;-75
2022/08/26 07:34:39;;;;;;;18.53;6.10;;;;;;;24.54;73.55;94574.91;5112052;28;20439;-75
2022/08/26 07:37:07;;;;;;;16.47;6.67;;;;;;;24.81;70.64;94570.03;5112319;28;20443;-76
2022/08/26 07:39:34;;;;;;;22.37;7.20;;;;;;;24.96;69.03;94580.41;5112555;28;20450;-75
2022/08/26 07:42:01;;;;;;;24.63;8.27;;;;;;;25.13;66.55;94581.44;5115574;28;20443;-76
2022/08/26 07:44:28;;;;;;;20.50;8.30;;;;;;;25.19;65.10;94568.97;5115900;28;20439;-75
2022/08/26 07:46:55;;;;;;;21.57;6.60;;;;;;;25.46;65.54;94564.03;5115898;28;20435;-75
2022/08/26 07:49:23;;;;;;;19.63;7.23;;;;;;;25.76;64.89;94572.09;5115481;28;20454;-75
2022/08/26 07:51:53;;;;;;;17.83;6.87;;;;;;;25.98;63.07;94566.94;5115814;28;20443;-75
2022/08/26 07:54:20;;;;;;;17.73;5.67;;;;;;;26.11;60.78;94570.22;5115487;28;20993;-75
2022/08/26 07:56:47;;;;;;;17.87;5.67;;;;;;;26.28;61.15;94564.94;5115214;28;20447;-75
2022/08/26 07:59:15;;;;;;;18.20;6.20;;;;;;;26.37;59.22;94568.16;5115358;28;20811;-75
2022/08/26 08:01:43;;;;;;;12.53;5.80;;;;;;;26.57;61.00;94573.13;5115639;28;20479;-75
2022/08/26 08:04:09;;;;;;;10.70;5.27;;;;;;;26.86;59.24;94564.06;5115217;28;20850;-75
2022/08/26 08:06:37;;;;;;;22.30;6.00;;;;;;;27.11;54.45;94561.91;5115298;28;20446;-75
2022/08/26 08:09:06;;;;;;;17.43;6.00;;;;;;;27.31;55.00;94552.56;5115242;28;20442;-76
2022/08/26 08:11:32;;;;;;;16.13;5.97;;;;;;;27.35;54.76;94556.41;5114968;28;20438;-75
2022/08/26 08:14:00;;;;;;;19.50;5.57;;;;;;;27.57;55.81;94554.66;5062724;28;20487;-75
2022/08/26 08:16:28;;;;;;;19.73;6.87;;;;;;;27.95;53.51;94563.94;5115127;28;20451;-75
2022/08/26 08:18:56;;;;;;;21.57;7.17;;;;;;;28.19;50.26;94557.31;5115010;28;20462;-76
2022/08/26 08:21:24;;;;;;;33.50;7.97;;;;;;;28.18;51.66;94555.66;5078802;28;20439;-75
2022/08/26 08:23:52;;;;;;;28.90;8.63;;;;;;;28.04;51.78;94554.34;5115167;28;20482;-75
2022/08/26 08:26:23;;;;;;;19.47;8.00;;;;;;;27.99;53.77;94552.41;5114971;28;20450;-75
2022/08/26 08:28:53;;;;;;;25.50;6.73;;;;;;;27.89;51.25;94549.56;5114899;28;20439;-75
2022/08/26 08:31:21;;;;;;;20.53;6.60;;;;;;;27.90;53.01;94542.28;5115050;28;20446;-75
2022/08/26 08:33:48;;;;;;;24.87;6.70;;;;;;;28.08;52.52;94542.03;5114801;28;20447;-75
2022/08/26 08:36:15;;;;;;;16.30;7.00;;;;;;;28.21;48.96;94549.78;5114637;28;20947;-75
2022/08/26 08:38:43;;;;;;;9.77;5.10;;;;;;;28.44;50.33;94550.66;5114657;28;20867;-76
2022/08/26 08:41:26;;;;;;;21.80;6.10;;;;;;;28.58;49.41;94543.81;5078305;28;20502;-75
2022/08/26 08:43:55;;;;;;;16.30;5.00;;;;;;;28.45;44.98;94538.81;5114530;28;20489;-76
2022/08/26 08:46:22;;;;;;;18.33;5.13;;;;;;;28.71;45.63;94542.66;5114443;28;20921;-75
2022/08/26 08:48:55;;;;;;;12.97;4.53;;;;;;;28.93;46.05;94533.53;5114429;28;20825;-75
2022/08/26 08:51:31;;;;;;;18.40;5.37;;;;;;;29.08;43.11;94522.03;5078151;28;20455;-78
2022/08/26 08:53:59;;;;;;;25.33;5.50;;;;;;;29.12;43.82;94527.75;5064965;28;20432;-76
2022/08/26 08:56:32;;;;;;;28.97;7.70;;;;;;;29.31;44.48;94523.66;5107362;28;20474;-75
2022/08/26 08:59:09;;;;;;;17.90;4.30;;;;;;;29.10;44.75;94532.59;5114356;28;20929;-76
2022/08/26 09:02:10;;;;;;;20.07;5.97;;;;;;;28.90;43.58;94525.88;5093735;28;20446;-75
2022/08/26 09:05:09;;;;;;;11.20;4.70;;;;;;;28.79;44.93;94526.81;5075223;28;20491;-76
2022/08/26 09:07:40;;;;;;;23.53;5.83;;;;;;;28.72;43.31;94520.78;5032364;28;20549;-76
2022/08/26 09:10:26;;;;;;;17.23;5.33;;;;;;;28.66;42.50;94519.09;5031665;28;20439;-76
2022/08/26 09:12:54;;;;;;;22.17;5.93;;;;;;;28.75;41.56;94514.88;5031532;28;20471;-76
2022/08/26 09:15:27;;;;;;;16.53;5.93;;;;;;;28.94;43.34;94510.84;5030978;28;20463;-76
2022/08/26 09:18:00;;;;;;;15.03;6.27;;;;;;;28.78;42.91;94510.88;5031670;28;20438;-76
2022/08/26 09:20:39;;;;;;;31.40;6.30;;;;;;;29.02;41.70;94509.56;5031439;28;20443;-77
2022/08/26 09:23:06;;;;;;;15.50;6.30;;;;;;;29.13;42.19;94511.28;4998178;28;20518;-76
2022/08/26 09:25:33;;;;;;;22.23;5.17;;;;;;;29.12;41.56;94506.13;5030485;28;20466;-76
2022/08/26 09:28:01;;;;;;;14.00;6.00;;;;;;;29.05;40.12;94511.75;5030806;28;20458;-77
2022/08/26 09:30:31;;;;;;;13.80;6.00;;;;;;;28.95;39.25;94498.97;5031604;28;20925;-77
2022/08/26 09:33:02;;;;;;;8.37;6.10;;;;;;;29.04;41.00;94501.19;5031602;28;20541;-77
2022/08/26 09:35:31;;;;;;;10.70;7.13;;;;;;;29.08;41.64;94494.22;5031905;28;20550;-77
2022/08/26 09:37:58;;;;;;;14.43;6.57;;;;;;;29.06;41.67;94485.53;5031589;28;20443;-78
2022/08/26 09:40:30;;;;;;;15.27;6.83;;;;;;;29.20;41.07;94492.16;5031727;28;20914;-77
2022/08/26 09:43:18;;;;;;;16.30;6.80;;;;;;;29.33;42.64;94488.25;5061448;28;20841;-77
2022/08/26 09:45:47;;;;;;;12.50;5.90;;;;;;;29.47;41.14;94490.28;5114514;28;20447;-77
2022/08/26 09:48:26;;;;;;;17.30;6.70;;;;;;;29.51;40.51;94494.13;5114285;28;20457;-77
2022/08/26 09:50:56;;;;;;;15.73;7.00;;;;;;;29.56;40.14;94491.47;5114585;28;20496;-77
2022/08/26 09:53:24;;;;;;;18.83;6.77;;;;;;;29.62;40.42;94486.09;5114287;28;20812;-76
2022/08/26 09:56:10;;;;;;;18.37;8.10;;;;;;;29.56;37.48;94491.47;5113890;28;20945;-77
2022/08/26 09:58:39;;;;;;;17.73;8.50;;;;;;;29.42;37.56;94484.00;5114223;28;20446;-76
2022/08/26 10:01:09;;;;;;;15.53;7.30;;;;;;;29.43;39.29;94491.84;5113894;28;20443;-77
2022/08/26 10:03:39;;;;;;;21.33;7.13;;;;;;;29.45;40.54;94488.91;5113028;28;20486;-77
2022/08/26 10:06:20;;;;;;;27.53;6.87;;;;;;;29.48;39.71;94483.00;5113642;28;20450;-77
2022/08/26 10:08:51;;;;;;;22.47;7.10;;;;;;;29.41;38.57;94483.19;5113942;28;20442;-77
2022/08/26 10:11:22;;;;;;;15.60;5.80;;;;;;;29.37;40.83;94481.25;5114058;28;20876;-76
2022/08/26 10:13:56;;;;;;;19.50;7.60;;;;;;;29.41;40.85;94475.06;5114177;28;20475;-76
2022/08/26 10:16:28;;;;;;;14.57;8.57;;;;;;;29.56;39.44;94474.44;5113742;28;20546;-75
2022/08/26 10:19:01;;;;;;;15.33;7.90;;;;;;;29.55;37.85;94479.03;5113847;28;20929;-76
2022/08/26 10:21:35;;;;;;;19.17;7.63;;;;;;;29.33;38.66;94480.94;5114173;28;20507;-76
2022/08/26 10:24:03;;;;;;;17.27;8.87;;;;;;;29.21;38.68;94483.00;5112702;28;20850;-77
2022/08/26 10:26:38;;;;;;;16.20;8.97;;;;;;;29.03;39.58;94467.16;5112606;28;20447;-76
2022/08/26 10:29:12;;;;;;;19.40;8.03;;;;;;;28.88;40.89;94475.88;5076842;28;20450;-76
2022/08/26 10:31:44;;;;;;;18.10;9.00;;;;;;;28.84;38.71;94470.16;5112929;28;20455;-75
2022/08/26 10:34:11;;;;;;;18.53;8.87;;;;;;;28.85;40.07;94474.50;5112750;28;20446;-77
2022/08/26 10:36:51;;;;;;;14.40;8.50;;;;;;;28.87;38.71;94464.28;5112579;28;20439;-77
2022/08/26 10:39:26;;;;;;;17.50;10.53;;;;;;;28.81;39.70;94467.97;5112374;28;20443;-76
2022/08/26 10:41:59;;;;;;;16.70;7.97;;;;;;;28.79;40.53;94463.88;5112576;28;20442;-76
2022/08/26 10:44:33;;;;;;;12.50;7.70;;;;;;;28.88;40.67;94474.00;5112460;28;20569;-77
2022/08/26 10:47:12;;;;;;;12.83;8.30;;;;;;;28.93;39.58;94460.56;5112858;28;20444;-77
2022/08/26 10:49:41;;;;;;;13.10;7.30;;;;;;;28.91;41.24;94461.88;5112297;28;20980;-76
2022/08/26 10:52:13;;;;;;;13.57;7.73;;;;;;;28.94;42.02;94462.22;5059742;28;20436;-76
2022/08/26 10:54:45;;;;;;;19.00;7.23;;;;;;;28.98;40.89;94457.91;5112434;28;20473;-76
2022/08/26 10:57:15;;;;;;;14.77;8.30;;;;;;;28.94;40.20;94453.28;5059796;28;20431;-77
2022/08/26 10:59:59;;;;;;;20.37;8.30;;;;;;;28.95;39.40;94454.91;5112386;28;20443;-76
2022/08/26 11:02:32;;;;;;;18.87;7.97;;;;;;;28.88;40.31;94463.19;5112415;28;20496;-76
2022/08/26 11:05:03;;;;;;;11.30;7.37;;;;;;;28.86;39.71;94459.13;5112593;28;20825;-76
2022/08/26 11:07:42;;;;;;;15.87;8.30;;;;;;;28.88;39.19;94455.09;5112226;28;20439;-76
2022/08/26 11:10:53;;;;;;;18.00;9.60;;;;;;;28.83;39.00;94452.31;5112149;28;20443;-76
2022/08/26 11:13:40;;;;;;;12.93;7.40;;;;;;;28.81;40.22;94453.63;5029194;28;21043;-77
2022/08/26 11:16:08;;;;;;;14.07;8.17;;;;;;;28.74;40.04;94451.13;5033539;28;20442;-76
2022/08/26 11:18:47;;;;;;;17.60;7.07;;;;;;;28.41;40.93;94454.00;4999972;28;20477;-77
2022/08/26 11:21:50;;;;;;;25.03;8.23;;;;;;;28.48;43.67;94457.31;5033269;28;20458;-77
2022/08/26 11:24:43;;;;;;;17.90;8.80;;;;;;;28.46;41.60;94451.34;5032882;28;20561;-77
2022/08/26 11:27:32;;;;;;;22.37;8.57;;;;;;;28.44;41.50;94450.78;5032882;28;20505;-77
2022/08/26 11:30:03;;;;;;;14.33;8.23;;;;;;;28.49;41.22;94448.16;5032925;28;20529;-77
2022/08/26 11:32:51;;;;;;;17.83;7.97;;;;;;;28.58;40.47;94446.63;5032859;28;20443;-76
2022/08/26 11:35:49;;;;;;;18.20;8.30;;;;;;;28.65;41.64;94447.28;5032784;28;20929;-77
2022/08/26 11:38:24;;;;;;;18.90;8.00;;;;;;;28.76;41.48;94440.91;5032673;28;20457;-77
2022/08/26 11:41:06;;;;;;;19.53;8.60;;;;;;;28.82;40.65;94441.75;5030921;28;20443;-77
2022/08/26 11:43:33;;;;;;;26.83;7.63;;;;;;;28.70;39.33;94436.53;5042145;28;20588;-76
2022/08/26 11:46:03;;;;;;;19.17;7.40;;;;;;;28.78;39.83;94440.66;5046985;28;20479;-78
2022/08/26 11:48:33;;;;;;;18.10;9.57;;;;;;;28.77;39.77;94439.81;5016204;28;20449;-76